Time;durP1;ratioP1;P1;durP2;ratioP2;P2;SDS_P1;SDS_P2;PMS_P1;PMS_P2;Temp;Humidity;BMP_temperature;BMP_pressure;BME280_temperature;BME280_humidity;BME280_pressure;Samples;Min_cycle;Max_cycle;Signal;HPM_P1;HPM_P2
2022/06/04 00:00:28;;;;;;;87.05;14.45;;;13.60;99.90;;;;;;5039378;28;20128;-87
2022/06/04 00:02:54;;;;;;;55.65;12.18;;;13.60;99.90;;;;;;5032665;28;20445;-87
2022/06/04 00:05:24;;;;;;;43.85;11.05;;;13.60;99.90;;;;;;5042166;28;20118;-86
2022/06/04 00:07:50;;;;;;;70.30;11.52;;;13.50;99.90;;;;;;5028788;28;20026;-85
2022/06/04 00:15:50;;;;;;;74.20;12.15;;;13.30;99.90;;;;;;5031572;28;20551;-86
2022/06/04 00:18:17;;;;;;;89.90;12.35;;;13.20;99.90;;;;;;5048574;28;20036;-86
2022/06/04 00:20:43;;;;;;;85.45;12.32;;;13.20;99.90;;;;;;5045582;28;20038;-86
2022/06/04 00:23:10;;;;;;;50.33;11.35;;;13.30;99.90;;;;;;5034335;28;20112;-87
2022/06/04 00:25:39;;;;;;;185.15;16.35;;;13.40;99.90;;;;;;5039689;28;20029;-86
2022/06/04 00:28:07;;;;;;;106.22;12.88;;;13.40;99.90;;;;;;5039222;28;20030;-87
2022/06/04 00:30:34;;;;;;;110.13;14.00;;;13.40;99.90;;;;;;5036192;28;20468;-85
2022/06/04 00:33:00;;;;;;;114.03;12.98;;;13.50;99.90;;;;;;5046670;28;20033;-86
2022/06/04 00:35:26;;;;;;;73.40;10.20;;;13.40;99.90;;;;;;5022706;28;20025;-86
2022/06/04 00:37:53;;;;;;;45.33;10.05;;;13.50;99.90;;;;;;5023922;28;20029;-86
2022/06/04 00:40:32;;;;;;;93.10;14.15;;;13.50;99.90;;;;;;5018103;28;20034;-85
2022/06/04 00:42:58;;;;;;;24.25;8.30;;;13.50;99.90;;;;;;5034662;28;20056;-87
2022/06/04 00:45:36;;;;;;;44.22;9.25;;;13.50;99.90;;;;;;5029834;28;20045;-86
2022/06/04 00:48:08;;;;;;;28.88;7.60;;;13.50;99.90;;;;;;5025001;28;20041;-86
2022/06/04 00:50:40;;;;;;;70.50;11.82;;;13.40;99.90;;;;;;5044684;28;20029;-87
2022/06/04 00:53:09;;;;;;;38.17;8.85;;;13.30;99.90;;;;;;5036630;28;20025;-76
2022/06/04 00:56:05;;;;;;;35.70;9.18;;;13.20;99.90;;;;;;5036343;28;20032;-80
2022/06/04 00:58:50;;;;;;;52.42;8.90;;;13.10;99.90;;;;;;5026975;28;20068;-78
2022/06/04 01:01:27;;;;;;;21.58;7.95;;;13.10;99.90;;;;;;5025963;28;20033;-80
2022/06/04 01:04:47;;;;;;;18.15;7.47;;;13.10;99.90;;;;;;5030852;28;20568;-80
2022/06/04 01:07:06;;;;;;;33.80;7.70;;;13.10;99.90;;;;;;5022818;28;20029;-86
2022/06/04 01:09:51;;;;;;;53.30;9.48;;;13.10;99.90;;;;;;5024316;28;20026;-88
2022/06/04 01:12:47;;;;;;;53.78;8.10;;;13.00;99.90;;;;;;5035560;28;20032;-88
2022/06/04 01:15:29;;;;;;;15.63;6.40;;;13.00;99.90;;;;;;5036693;28;20072;-88
2022/06/04 01:18:25;;;;;;;20.55;7.47;;;13.00;99.90;;;;;;5038818;28;20083;-88
2022/06/04 01:21:13;;;;;;;19.83;6.85;;;13.00;99.90;;;;;;5038166;28;20203;-88
2022/06/04 01:24:16;;;;;;;18.17;7.00;;;12.90;99.90;;;;;;5045883;28;20033;-87
2022/06/04 01:27:01;;;;;;;13.35;6.65;;;12.90;99.90;;;;;;5034980;28;20032;-88
2022/06/04 01:29:31;;;;;;;14.38;6.55;;;12.80;99.90;;;;;;5037871;28;20053;-88
2022/06/04 01:32:12;;;;;;;11.40;6.95;;;12.80;99.90;;;;;;5033198;28;20036;-87
2022/06/04 01:34:47;;;;;;;;;;;12.70;99.90;;;;;;5031040;28;20120;-87
2022/06/04 01:37:45;;;;;;;8.57;6.57;;;12.70;99.90;;;;;;5041446;28;19912;-88
2022/06/04 01:43:02;;;;;;;8.70;5.90;;;12.70;99.90;;;;;;5043679;28;20122;-88
2022/06/04 01:45:30;;;;;;;9.68;6.82;;;12.60;99.90;;;;;;5072972;28;20382;-87
2022/06/04 01:47:58;;;;;;;13.70;6.10;;;12.50;99.90;;;;;;5022151;28;20029;-87
2022/06/04 01:50:55;;;;;;;9.23;6.97;;;12.50;99.90;;;;;;5036241;28;20025;-88
2022/06/04 01:53:26;;;;;;;10.07;6.53;;;12.50;99.90;;;;;;5039042;28;20032;-88
2022/06/04 01:55:58;;;;;;;7.30;5.80;;;12.40;99.90;;;;;;5038174;28;20041;-88
2022/06/04 01:58:50;;;;;;;9.65;6.00;;;12.40;99.90;;;;;;5041193;28;20044;-88
2022/06/04 02:01:20;;;;;;;8.82;5.80;;;12.40;99.90;;;;;;5057805;28;20060;-88
2022/06/04 02:04:15;;;;;;;12.45;6.05;;;12.40;99.90;;;;;;5037664;28;20053;-87
2022/06/04 02:09:43;;;;;;;10.50;6.47;;;12.20;99.90;;;;;;5036686;28;20047;-88
2022/06/04 02:12:10;;;;;;;8.38;5.95;;;12.20;99.90;;;;;;5043290;28;20033;-88
2022/06/04 02:14:37;;;;;;;7.70;5.32;;;12.00;99.90;;;;;;5031797;28;20116;-88
2022/06/04 02:17:09;;;;;;;9.43;6.03;;;12.10;99.90;;;;;;5016635;28;20546;-88
2022/06/04 02:19:35;;;;;;;8.88;6.05;;;12.20;99.90;;;;;;5037318;28;20669;-86
2022/06/04 02:22:02;;;;;;;9.70;5.80;;;12.20;99.90;;;;;;5032300;28;20036;-88
2022/06/04 02:24:28;;;;;;;13.82;8.07;;;12.10;99.90;;;;;;5035885;28;20040;-87
2022/06/04 02:26:54;;;;;;;22.98;9.50;;;12.10;99.90;;;;;;5036656;28;20017;-89
2022/06/04 02:29:20;;;;;;;40.50;9.75;;;12.20;99.90;;;;;;5038496;28;20048;-88
2022/06/04 02:31:58;;;;;;;29.35;8.35;;;12.30;99.90;;;;;;5028867;28;20124;-88
2022/06/04 02:34:40;;;;;;;41.05;8.50;;;12.30;99.90;;;;;;5038664;28;20052;-85
2022/06/04 02:37:11;;;;;;;36.67;8.32;;;12.30;99.90;;;;;;5032175;28;20072;-87
2022/06/04 02:39:54;;;;;;;55.35;9.20;;;12.30;99.90;;;;;;5034795;28;20026;-86
2022/06/04 02:42:50;;;;;;;19.98;8.13;;;12.40;99.90;;;;;;5034013;28;20060;-86
2022/06/04 02:45:31;;;;;;;71.47;10.82;;;12.40;99.90;;;;;;5035424;28;20037;-86
2022/06/04 02:48:11;;;;;;;27.35;9.20;;;12.50;99.90;;;;;;5035969;28;20025;-86
2022/06/04 02:50:56;;;;;;;45.47;9.57;;;12.50;99.90;;;;;;5052865;28;20032;-86
2022/06/04 02:53:23;;;;;;;39.30;8.93;;;12.50;99.90;;;;;;5037935;28;20036;-87
2022/06/04 02:55:55;;;;;;;61.33;10.40;;;12.50;99.90;;;;;;5037024;28;20045;-87
2022/06/04 02:58:23;;;;;;;56.33;8.60;;;12.50;99.90;;;;;;5032767;28;20108;-86
2022/06/04 03:00:54;;;;;;;52.45;8.88;;;12.60;99.90;;;;;;5033010;28;20076;-86
2022/06/04 03:03:21;;;;;;;175.77;16.90;;;12.60;99.90;;;;;;5050230;28;20447;-86
2022/06/04 03:05:52;;;;;;;27.48;7.38;;;12.50;99.90;;;;;;5034395;28;20033;-86
2022/06/04 03:08:18;;;;;;;19.15;7.82;;;12.50;99.90;;;;;;5029751;28;20026;-86
2022/06/04 03:10:43;;;;;;;26.35;8.10;;;12.50;99.90;;;;;;5033994;28;20036;-87
2022/06/04 03:13:09;;;;;;;19.40;8.77;;;12.40;99.90;;;;;;5028136;28;20039;-87
2022/06/04 03:15:35;;;;;;;12.25;6.93;;;12.50;99.90;;;;;;5036964;28;20063;-88
2022/06/04 03:18:00;;;;;;;16.73;7.13;;;12.40;99.90;;;;;;5024919;28;20033;-87
2022/06/04 03:20:27;;;;;;;23.52;7.65;;;12.50;99.90;;;;;;5038377;28;20403;-87
2022/06/04 03:22:53;;;;;;;23.55;7.13;;;12.60;99.90;;;;;;5033826;28;20029;-87
2022/06/04 03:25:19;;;;;;;37.13;8.50;;;12.70;99.90;;;;;;5037713;28;20036;-88
2022/06/04 03:27:46;;;;;;;27.10;7.82;;;12.70;99.90;;;;;;5018870;28;20396;-87
2022/06/04 03:30:12;;;;;;;56.80;10.93;;;12.80;99.90;;;;;;5037883;28;20170;-87
2022/06/04 03:32:38;;;;;;;58.20;11.68;;;12.70;99.90;;;;;;5030743;28;20563;-87
2022/06/04 03:35:04;;;;;;;124.50;15.00;;;12.90;99.90;;;;;;5034211;28;20041;-87
2022/06/04 03:37:30;;;;;;;169.20;15.65;;;13.00;99.90;;;;;;5011895;28;20496;-87
2022/06/04 03:39:56;;;;;;;109.10;11.07;;;12.90;99.90;;;;;;5031585;28;20035;-87
2022/06/04 03:42:21;;;;;;;82.70;10.30;;;13.00;99.90;;;;;;5037279;28;20033;-87
2022/06/04 03:44:47;;;;;;;103.97;11.68;;;13.00;99.90;;;;;;5036000;28;20036;-87
2022/06/04 03:47:19;;;;;;;104.97;13.45;;;12.90;99.90;;;;;;5038997;28;20485;-87
2022/06/04 03:49:46;;;;;;;98.70;11.52;;;13.00;99.90;;;;;;5039099;28;20034;-86
2022/06/04 03:52:13;;;;;;;53.17;10.20;;;13.00;99.90;;;;;;5037160;28;20219;-87
2022/06/04 03:54:55;;;;;;;72.43;10.55;;;12.90;99.90;;;;;;5037370;28;20045;-87
2022/06/04 03:57:38;;;;;;;32.25;8.10;;;12.90;99.90;;;;;;5035081;28;20033;-85
2022/06/04 04:00:18;;;;;;;23.98;7.57;;;12.90;99.90;;;;;;5030602;28;20037;-87
2022/06/04 04:02:51;;;;;;;23.20;8.13;;;12.90;99.90;;;;;;5029249;28;20033;-87
2022/06/04 04:05:19;;;;;;;17.77;7.07;;;12.80;99.90;;;;;;5028012;28;20058;-87
2022/06/04 04:07:45;;;;;;;10.07;6.95;;;13.00;99.90;;;;;;5034225;28;20036;-87
2022/06/04 04:10:12;;;;;;;10.48;7.22;;;13.00;99.90;;;;;;5038973;28;20041;-87
2022/06/04 04:12:38;;;;;;;10.00;7.05;;;13.00;99.90;;;;;;5045851;28;20033;-86
2022/06/04 04:15:05;;;;;;;8.95;5.85;;;12.90;99.90;;;;;;5042592;28;20021;-87
2022/06/04 04:17:31;;;;;;;9.90;6.68;;;13.00;99.90;;;;;;5022665;28;20033;-86
2022/06/04 04:19:57;;;;;;;11.90;6.63;;;13.10;99.90;;;;;;5048319;28;20048;-86
2022/06/04 04:22:22;;;;;;;10.02;6.82;;;13.00;99.90;;;;;;5054662;28;20534;-86
2022/06/04 04:24:48;;;;;;;10.65;7.20;;;13.10;99.90;;;;;;5037686;28;20378;-87
2022/06/04 04:27:14;;;;;;;13.18;8.07;;;13.20;99.90;;;;;;5030483;28;20087;-87
2022/06/04 04:29:40;;;;;;;14.38;8.70;;;13.30;99.90;;;;;;5035350;28;20119;-87
2022/06/04 04:32:07;;;;;;;11.77;8.45;;;13.30;99.90;;;;;;5031226;28;20112;-87
2022/06/04 04:34:33;;;;;;;10.02;7.13;;;13.40;99.90;;;;;;5029705;28;20047;-87
2022/06/04 04:36:59;;;;;;;9.80;7.68;;;13.60;99.90;;;;;;5031391;28;20041;-87
2022/06/04 04:39:24;;;;;;;20.05;9.63;;;13.50;99.90;;;;;;5034777;28;20125;-86
2022/06/04 04:41:50;;;;;;;12.38;7.65;;;13.50;99.90;;;;;;5044690;28;20041;-87
2022/06/04 04:44:16;;;;;;;14.95;8.10;;;13.70;99.90;;;;;;5036599;28;20036;-87
2022/06/04 04:46:42;;;;;;;11.25;8.10;;;13.90;99.90;;;;;;5038676;28;20228;-87
2022/06/04 04:49:08;;;;;;;16.13;9.40;;;14.10;99.90;;;;;;5037031;28;20037;-88
2022/06/04 04:51:34;;;;;;;17.95;8.48;;;13.90;99.90;;;;;;5035260;28;20060;-87
2022/06/04 04:54:01;;;;;;;14.35;9.82;;;14.00;99.90;;;;;;5037077;28;20554;-87
2022/06/04 04:56:27;;;;;;;21.20;11.27;;;13.90;99.90;;;;;;5036054;28;20108;-87
2022/06/04 04:58:52;;;;;;;13.52;9.48;;;14.00;99.90;;;;;;5032418;28;20136;-87
2022/06/04 05:01:24;;;;;;;16.08;10.48;;;14.10;99.90;;;;;;5032489;28;20056;-87
2022/06/04 05:03:51;;;;;;;15.90;11.10;;;14.20;99.90;;;;;;5029344;28;20140;-88
2022/06/04 05:06:18;;;;;;;12.20;9.55;;;14.30;99.90;;;;;;5031788;28;20045;-88
2022/06/04 05:08:45;;;;;;;11.90;9.30;;;14.40;99.90;;;;;;5028843;28;20021;-87
2022/06/04 05:11:15;;;;;;;12.60;9.45;;;14.60;99.90;;;;;;5077471;28;20488;-87
2022/06/04 05:13:41;;;;;;;14.02;9.95;;;14.50;99.90;;;;;;5041118;28;20487;-88
2022/06/04 05:16:07;;;;;;;11.73;9.40;;;14.40;99.90;;;;;;5038892;28;20025;-88
2022/06/04 05:18:33;;;;;;;12.60;9.23;;;14.60;99.90;;;;;;5037568;28;20032;-87
2022/06/04 05:21:20;;;;;;;11.43;9.10;;;14.60;99.90;;;;;;5037358;28;20025;-88
2022/06/04 05:23:46;;;;;;;14.27;9.38;;;14.50;99.90;;;;;;5035310;28;20116;-87
2022/06/04 05:26:11;;;;;;;13.38;9.43;;;14.60;99.90;;;;;;5033224;28;20097;-87
2022/06/04 05:28:37;;;;;;;14.48;9.77;;;14.60;99.90;;;;;;5014328;28;20528;-87
2022/06/04 05:31:03;;;;;;;12.73;8.63;;;14.50;99.90;;;;;;5032953;28;20033;-88
2022/06/04 05:33:29;;;;;;;13.20;8.10;;;14.70;99.90;;;;;;5032317;28;20549;-89
2022/06/04 05:35:55;;;;;;;10.48;7.85;;;14.50;99.90;;;;;;5028675;28;20031;-88
2022/06/04 05:38:21;;;;;;;12.52;7.47;;;14.50;99.90;;;;;;5022939;28;20045;-88
2022/06/04 05:40:47;;;;;;;23.05;7.75;;;14.50;99.90;;;;;;5036628;28;20116;-89
2022/06/04 05:43:13;;;;;;;10.38;7.32;;;14.60;99.90;;;;;;5040978;28;20120;-88
2022/06/04 05:45:38;;;;;;;8.82;6.50;;;14.70;99.90;;;;;;5022215;28;20508;-88
2022/06/04 05:48:04;;;;;;;8.50;5.40;;;14.80;99.90;;;;;;5016787;28;20245;-88
2022/06/04 05:50:30;;;;;;;7.57;5.93;;;14.80;99.90;;;;;;5038185;28;20029;-87
2022/06/04 05:52:56;;;;;;;7.00;4.75;;;15.00;99.90;;;;;;5035625;28;20511;-90
2022/06/04 05:55:22;;;;;;;7.30;5.03;;;15.20;99.90;;;;;;5031655;28;20040;-90
2022/06/04 05:57:48;;;;;;;5.50;4.55;;;15.30;99.90;;;;;;5023994;28;20037;-87
2022/06/04 06:00:14;;;;;;;6.57;4.63;;;15.50;99.90;;;;;;5031306;28;20056;-89
2022/06/04 06:02:40;;;;;;;7.57;4.45;;;15.70;99.90;;;;;;5007641;28;20033;-90
2022/06/04 06:05:06;;;;;;;6.63;4.50;;;15.90;99.90;;;;;;5027098;28;20167;-90
2022/06/04 06:07:32;;;;;;;9.48;5.10;;;16.00;99.90;;;;;;5023202;28;20028;-89
2022/06/04 06:09:58;;;;;;;6.05;4.95;;;16.40;99.90;;;;;;5038217;28;20049;-89
2022/06/04 06:12:24;;;;;;;8.25;7.20;;;16.40;99.90;;;;;;5039163;28;20028;-90
2022/06/04 06:14:49;;;;;;;13.23;11.95;;;16.40;99.90;;;;;;5040678;28;20120;-90
2022/06/04 06:17:15;;;;;;;6.07;4.45;;;16.60;99.90;;;;;;5040639;28;20091;-90
2022/06/04 06:19:41;;;;;;;7.45;4.50;;;16.80;99.90;;;;;;5042126;28;20102;-89
2022/06/04 06:22:06;;;;;;;7.45;4.70;;;17.10;99.90;;;;;;5038480;28;20098;-90
2022/06/04 06:24:32;;;;;;;7.03;4.38;;;17.40;99.90;;;;;;5021000;28;20032;-89
2022/06/04 06:27:00;;;;;;;5.88;4.60;;;17.80;99.90;;;;;;5035791;28;20029;-85
2022/06/04 06:29:28;;;;;;;4.75;3.67;;;17.60;99.90;;;;;;5037556;28;20025;-89
2022/06/04 06:31:56;;;;;;;5.35;4.15;;;17.50;99.90;;;;;;5031716;28;20037;-87
2022/06/04 06:34:23;;;;;;;6.38;3.58;;;17.70;99.90;;;;;;5063828;28;20030;-89
2022/06/04 06:36:49;;;;;;;4.88;3.58;;;17.50;99.90;;;;;;5030801;28;20025;-88
2022/06/04 06:39:15;;;;;;;4.85;3.85;;;17.60;99.90;;;;;;5036321;28;20029;-87
2022/06/04 06:41:41;;;;;;;10.00;3.97;;;17.40;99.90;;;;;;5038644;28;20025;-87
2022/06/04 06:44:06;;;;;;;9.27;4.32;;;17.30;99.90;;;;;;5043128;28;20040;-87
2022/06/04 06:46:39;;;;;;;5.80;4.07;;;17.10;99.90;;;;;;5037874;28;20029;-87
2022/06/04 06:49:17;;;;;;;7.82;4.03;;;16.90;99.90;;;;;;5031093;28;20124;-87
2022/06/04 06:51:47;;;;;;;5.90;3.92;;;17.00;99.90;;;;;;5037075;28;20021;-87
2022/06/04 06:54:14;;;;;;;9.18;3.80;;;16.80;99.90;;;;;;5035150;28;20032;-88
2022/06/04 06:56:42;;;;;;;8.98;3.80;;;16.80;99.90;;;;;;5018608;28;20109;-88
2022/06/04 06:59:07;;;;;;;6.63;4.32;;;16.70;99.90;;;;;;5034887;28;20044;-88
2022/06/04 07:01:36;;;;;;;6.78;3.65;;;16.70;99.90;;;;;;5035900;28;20029;-88
2022/06/04 07:04:02;;;;;;;6.50;4.10;;;16.60;99.90;;;;;;5026549;28;20021;-88
2022/06/04 07:06:32;;;;;;;7.85;4.47;;;16.60;99.90;;;;;;5030517;28;20036;-87
2022/06/04 07:08:59;;;;;;;6.15;4.43;;;16.80;99.90;;;;;;5035461;28;20030;-87
2022/06/04 07:11:25;;;;;;;6.78;4.30;;;17.10;99.90;;;;;;5040623;28;20026;-87
2022/06/04 07:13:51;;;;;;;6.47;4.72;;;17.20;99.90;;;;;;5039564;28;20377;-88
2022/06/04 07:16:17;;;;;;;8.95;4.97;;;17.50;99.90;;;;;;5034529;28;20112;-86
2022/06/04 07:18:42;;;;;;;16.83;5.88;;;17.40;99.90;;;;;;5038448;28;20121;-88
2022/06/04 07:21:08;;;;;;;10.60;5.60;;;17.30;99.90;;;;;;5038477;28;20574;-88
2022/06/04 07:23:35;;;;;;;9.80;6.18;;;17.70;99.90;;;;;;5031298;28;20101;-89
2022/06/04 07:26:04;;;;;;;7.78;6.15;;;17.80;99.90;;;;;;5032537;28;20060;-88
2022/06/04 07:28:30;;;;;;;9.88;6.57;;;18.30;99.90;;;;;;5032604;28;20208;-89
2022/06/04 07:30:56;;;;;;;6.90;5.50;;;18.70;99.90;;;;;;5031832;28;20056;-88
2022/06/04 07:33:22;;;;;;;6.25;4.70;;;19.40;99.90;;;;;;5030111;28;20401;-88
2022/06/04 07:35:49;;;;;;;5.68;4.38;;;19.70;99.90;;;;;;5034776;28;20029;-87
2022/06/04 07:38:16;;;;;;;6.38;4.10;;;20.10;99.90;;;;;;5031503;28;20025;-85
2022/06/04 07:40:42;;;;;;;6.00;3.90;;;20.30;99.90;;;;;;5035759;28;20040;-87
2022/06/04 07:43:08;;;;;;;4.60;3.25;;;20.30;99.90;;;;;;5039810;28;20024;-88
2022/06/04 07:45:34;;;;;;;6.28;3.92;;;20.30;99.90;;;;;;5039605;28;20043;-88
2022/06/04 07:48:01;;;;;;;5.10;3.67;;;20.20;99.90;;;;;;5037070;28;20025;-88
2022/06/04 07:50:27;;;;;;;5.57;3.67;;;20.60;99.90;;;;;;5031764;28;20033;-87
2022/06/04 07:52:53;;;;;;;4.65;3.70;;;20.80;99.90;;;;;;5036762;28;20293;-87
2022/06/04 07:55:19;;;;;;;6.03;3.83;;;20.90;99.90;;;;;;5019015;28;20064;-87
2022/06/04 07:57:45;;;;;;;4.53;3.47;;;20.80;99.90;;;;;;5036003;28;20030;-88
2022/06/04 08:00:11;;;;;;;4.32;3.65;;;20.80;99.90;;;;;;5025461;28;20084;-87
2022/06/04 08:02:37;;;;;;;5.80;3.30;;;21.00;99.90;;;;;;5025963;28;20098;-88
2022/06/04 08:05:04;;;;;;;8.45;3.25;;;21.20;99.90;;;;;;5028330;28;20037;-88
2022/06/04 08:07:29;;;;;;;4.38;2.97;;;21.40;98.30;;;;;;5030005;28;20083;-88
2022/06/04 08:09:55;;;;;;;5.45;3.22;;;21.50;97.90;;;;;;5045428;28;20029;-87
2022/06/04 08:12:22;;;;;;;5.15;3.10;;;21.40;94.90;;;;;;5035412;28;20030;-88
2022/06/04 08:14:47;;;;;;;6.00;2.88;;;21.30;96.90;;;;;;5038262;28;20832;-88
2022/06/04 08:17:13;;;;;;;4.60;2.55;;;21.60;95.50;;;;;;5033906;28;20033;-88
2022/06/04 08:19:39;;;;;;;5.22;2.92;;;22.00;94.20;;;;;;5031775;28;20043;-87
2022/06/04 08:22:07;;;;;;;5.68;2.78;;;22.40;91.60;;;;;;5038483;28;20048;-88
2022/06/04 08:24:34;;;;;;;4.22;2.97;;;22.20;92.70;;;;;;5026482;28;20025;-88
2022/06/04 08:27:02;;;;;;;5.22;3.25;;;22.50;95.50;;;;;;5033854;28;20060;-87
2022/06/04 08:29:31;;;;;;;4.65;2.92;;;22.70;99.90;;;;;;5034046;28;20477;-87
2022/06/04 08:31:58;;;;;;;4.03;3.20;;;22.80;95.20;;;;;;5027468;28;20040;-87
2022/06/04 08:34:23;;;;;;;7.25;3.50;;;22.80;94.50;;;;;;5022658;28;20496;-87
2022/06/04 08:36:49;;;;;;;4.55;3.63;;;22.60;91.10;;;;;;5022009;28;20131;-87
2022/06/04 08:39:15;;;;;;;4.93;3.42;;;22.30;93.00;;;;;;5039451;28;20484;-87
2022/06/04 08:42:05;;;;;;;5.53;3.58;;;22.10;96.60;;;;;;5044013;28;20136;-87
2022/06/04 08:44:52;;;;;;;3.55;2.55;;;22.30;93.70;;;;;;5070523;28;20213;-88
2022/06/04 08:47:22;;;;;;;5.90;3.33;;;22.50;96.60;;;;;;5038279;28;20037;-87
2022/06/04 08:50:13;;;;;;;4.57;3.17;;;22.90;94.50;;;;;;5037862;28;20044;-88
2022/06/04 08:52:56;;;;;;;4.90;2.55;;;22.90;88.60;;;;;;5033990;28;20132;-87
2022/06/04 08:59:07;;;;;;;4.47;2.70;;;23.30;90.10;;;;;;5027424;28;20670;-87
2022/06/04 09:01:53;;;;;;;4.68;2.80;;;23.70;86.70;;;;;;5029122;28;20501;-88
2022/06/04 09:05:03;;;;;;;4.97;2.67;;;23.50;76.60;;;;;;5042541;28;20064;-88
2022/06/04 09:07:50;;;;;;;4.38;2.88;;;23.40;88.70;;;;;;5030473;28;20029;-87
2022/06/04 09:10:47;;;;;;;3.55;3.20;;;23.90;90.70;;;;;;5025227;28;20037;-88
2022/06/04 09:13:27;;;;;;;5.25;3.20;;;23.90;81.40;;;;;;5040716;28;20056;-88
2022/06/04 09:15:57;;;;;;;7.13;3.58;;;23.40;86.70;;;;;;5041219;28;20037;-87
2022/06/04 09:18:34;;;;;;;5.90;3.20;;;24.10;81.80;;;;;;5037517;28;20036;-87
2022/06/04 09:21:03;;;;;;;5.40;3.28;;;24.60;79.70;;;;;;5036877;28;20036;-88
2022/06/04 09:23:34;;;;;;;6.97;3.88;;;24.10;80.50;;;;;;5032273;28;20037;-87
2022/06/04 09:26:15;;;;;;;5.50;3.88;;;23.50;79.90;;;;;;5032695;28;20087;-88
2022/06/04 09:28:56;;;;;;;5.50;3.88;;;22.90;91.30;;;;;;5043724;28;20252;-87
2022/06/04 09:31:41;;;;;;;7.97;4.18;;;23.00;92.60;;;;;;5031145;28;20261;-87
2022/06/04 09:34:31;;;;;;;8.18;4.30;;;23.50;90.70;;;;;;5028320;28;20212;-88
2022/06/04 09:36:57;;;;;;;6.57;4.70;;;23.80;85.80;;;;;;5025343;28;20080;-87
2022/06/04 09:39:24;;;;;;;7.50;4.50;;;24.20;86.10;;;;;;5018708;28;20065;-86
2022/06/04 09:42:00;;;;;;;8.20;4.75;;;23.90;88.90;;;;;;5030588;28;20029;-87
2022/06/04 09:44:28;;;;;;;6.35;4.80;;;23.80;85.70;;;;;;5039549;28;20026;-87
2022/06/04 09:47:15;;;;;;;8.18;4.80;;;23.70;90.20;;;;;;5025489;28;20068;-87
2022/06/04 09:49:44;;;;;;;8.45;5.82;;;23.90;91.20;;;;;;5035107;28;20021;-87
2022/06/04 09:52:36;;;;;;;6.28;4.93;;;24.20;84.20;;;;;;5037004;28;20512;-86
2022/06/04 09:55:13;;;;;;;7.50;4.53;;;24.80;85.30;;;;;;5021627;28;20147;-89
2022/06/04 09:57:39;;;;;;;8.23;4.32;;;24.70;90.60;;;;;;5050016;28;20029;-88
2022/06/04 10:00:19;;;;;;;6.00;4.85;;;25.00;85.70;;;;;;5036079;28;20065;-88
2022/06/04 10:02:53;;;;;;;7.93;5.00;;;24.20;85.20;;;;;;5020328;28;20177;-88
2022/06/04 10:05:21;;;;;;;8.68;5.15;;;23.80;90.70;;;;;;5029692;28;20035;-88
2022/06/04 10:07:47;;;;;;;9.40;5.20;;;24.90;85.50;;;;;;5031316;28;20025;-88
2022/06/04 10:10:41;;;;;;;8.02;5.05;;;25.70;83.30;;;;;;5044504;28;20078;-87
2022/06/04 10:16:26;;;;;;;6.28;4.90;;;25.50;77.60;;;;;;5041257;28;20430;-88
2022/06/04 10:19:01;;;;;;;9.90;5.40;;;25.80;76.10;;;;;;5043240;28;20037;-87
2022/06/04 10:21:41;;;;;;;7.72;5.45;;;26.10;79.60;;;;;;5038685;28;20084;-87
2022/06/04 10:24:30;;;;;;;7.28;5.15;;;26.00;80.90;;;;;;5031974;28;20036;-88
2022/06/04 10:27:27;;;;;;;8.05;5.38;;;25.30;78.00;;;;;;5032664;28;20033;-87
2022/06/04 10:30:01;;;;;;;7.07;5.57;;;25.40;73.70;;;;;;5026781;28;20029;-88
2022/06/04 10:32:36;;;;;;;7.32;5.20;;;25.10;73.30;;;;;;5032692;28;20056;-88
2022/06/04 10:35:21;;;;;;;6.43;4.90;;;25.50;76.50;;;;;;5031383;28;20029;-87
2022/06/04 10:38:01;;;;;;;9.32;5.30;;;25.60;73.90;;;;;;5029091;28;20052;-87
2022/06/04 10:40:39;;;;;;;9.05;4.80;;;26.10;75.30;;;;;;5052623;28;20096;-87
2022/06/04 10:43:20;;;;;;;7.85;5.22;;;26.60;73.50;;;;;;5033787;28;20033;-87
2022/06/04 10:45:54;;;;;;;8.43;5.20;;;26.70;69.60;;;;;;5036140;28;20028;-86
2022/06/04 10:48:52;;;;;;;9.38;5.55;;;26.80;71.20;;;;;;5036644;28;20032;-86
2022/06/04 10:51:52;;;;;;;8.25;5.28;;;26.90;69.60;;;;;;5036547;28;20347;-87
2022/06/04 10:54:46;;;;;;;14.05;6.18;;;27.00;66.80;;;;;;5028369;28;20044;-86
2022/06/04 10:57:29;;;;;;;12.93;6.82;;;28.10;64.20;;;;;;5034346;28;20508;-87
2022/06/04 11:00:04;;;;;;;9.57;4.45;;;29.10;59.40;;;;;;5031838;28;20090;-87
2022/06/04 11:02:56;;;;;;;5.85;3.70;;;29.20;54.70;;;;;;5026192;28;20060;-86
2022/06/04 11:05:32;;;;;;;5.35;3.28;;;28.70;53.00;;;;;;5027916;28;20116;-86
2022/06/04 11:08:45;;;;;;;5.25;3.28;;;29.00;54.10;;;;;;5042998;28;20097;-87
2022/06/04 11:11:37;;;;;;;8.98;4.65;;;29.10;53.00;;;;;;5028897;28;20352;-87
2022/06/04 11:14:13;;;;;;;8.18;3.90;;;28.40;53.00;;;;;;5037519;28;20510;-87
2022/06/04 11:16:45;;;;;;;11.68;4.78;;;29.40;53.30;;;;;;5036435;28;20120;-88
2022/06/04 11:19:19;;;;;;;10.60;5.53;;;29.50;57.70;;;;;;5036932;28;20044;-89
2022/06/04 11:22:04;;;;;;;17.52;6.88;;;28.60;54.00;;;;;;5039364;28;20040;-87
2022/06/04 11:24:44;;;;;;;6.03;3.67;;;28.00;58.80;;;;;;5030225;28;20143;-87
2022/06/04 11:27:17;;;;;;;5.18;3.40;;;28.50;50.50;;;;;;5032356;28;20025;-87
2022/06/04 11:29:44;;;;;;;17.98;7.32;;;28.40;52.60;;;;;;5031263;28;20207;-88
2022/06/04 11:32:19;;;;;;;9.35;4.13;;;28.60;56.60;;;;;;5025084;28;20034;-88
2022/06/04 11:34:56;;;;;;;9.63;4.10;;;29.40;54.10;;;;;;5032226;28;20040;-88
2022/06/04 11:37:37;;;;;;;12.95;5.78;;;30.80;47.50;;;;;;5039076;28;20025;-87
2022/06/04 11:40:12;;;;;;;7.15;3.28;;;31.10;44.20;;;;;;5045404;28;20081;-87
2022/06/04 11:43:05;;;;;;;10.07;3.60;;;31.40;43.10;;;;;;5033491;28;20107;-87
2022/06/04 11:45:54;;;;;;;7.25;3.95;;;31.40;42.40;;;;;;5037205;28;20044;-86
2022/06/04 11:48:58;;;;;;;12.23;3.92;;;30.90;46.20;;;;;;5069670;28;20049;-88
2022/06/04 11:51:55;;;;;;;13.60;4.70;;;31.50;41.10;;;;;;5038024;28;20033;-87
2022/06/04 11:54:44;;;;;;;5.25;2.90;;;31.50;40.30;;;;;;5033135;28;20385;-88
2022/06/04 11:57:21;;;;;;;17.30;6.07;;;31.70;41.10;;;;;;5044634;28;20025;-87
2022/06/04 12:00:02;;;;;;;10.68;4.28;;;31.50;39.50;;;;;;5063975;28;20124;-88
2022/06/04 12:02:37;;;;;;;18.42;4.53;;;32.20;37.40;;;;;;5031863;28;20056;-87
2022/06/04 12:05:44;;;;;;;12.25;4.10;;;32.50;37.70;;;;;;5033374;28;20038;-87
2022/06/04 12:08:23;;;;;;;8.43;3.47;;;32.60;36.50;;;;;;5034120;28;20091;-88
2022/06/04 12:10:52;;;;;;;7.63;3.83;;;33.40;36.90;;;;;;5037374;28;20049;-87
2022/06/04 12:13:44;;;;;;;8.13;3.65;;;33.10;35.90;;;;;;5042545;28;20078;-87
2022/06/04 12:16:18;;;;;;;7.82;3.88;;;32.30;36.70;;;;;;5012410;28;20052;-87
2022/06/04 12:19:02;;;;;;;8.15;4.50;;;33.00;36.40;;;;;;5067228;28;20488;-88
2022/06/04 12:24:26;;;;;;;7.72;4.82;;;32.70;38.20;;;;;;5030810;28;20121;-86
2022/06/04 12:27:24;;;;;;;8.80;4.80;;;32.80;36.40;;;;;;5033092;28;20068;-88
2022/06/04 12:29:53;;;;;;;10.38;5.47;;;32.60;36.20;;;;;;5029833;28;20053;-87
2022/06/04 12:32:28;;;;;;;9.85;4.85;;;32.90;34.70;;;;;;5028278;28;20042;-88
2022/06/04 12:35:19;;;;;;;7.38;3.80;;;33.60;35.60;;;;;;5029719;28;20036;-87
2022/06/04 12:37:54;;;;;;;6.97;3.80;;;33.20;35.80;;;;;;5036625;28;20082;-88
2022/06/04 12:40:19;;;;;;;10.07;5.20;;;33.60;33.10;;;;;;5037350;28;20082;-87
2022/06/04 12:43:14;;;;;;;9.15;4.95;;;33.80;32.20;;;;;;5037110;28;20037;-87
2022/06/04 12:45:47;;;;;;;9.77;5.50;;;33.50;33.00;;;;;;5030126;28;20455;-87
2022/06/04 12:48:21;;;;;;;7.32;5.20;;;33.90;34.20;;;;;;5029623;28;20230;-87
2022/06/04 12:50:51;;;;;;;6.38;4.50;;;34.30;31.00;;;;;;5032831;28;20040;-86
2022/06/04 12:53:21;;;;;;;12.50;4.38;;;34.70;30.40;;;;;;5030525;28;20034;-88
2022/06/04 12:55:52;;;;;;;15.40;5.68;;;33.80;32.30;;;;;;5034564;28;20533;-86
2022/06/04 12:58:29;;;;;;;11.48;5.65;;;33.90;31.30;;;;;;5030816;28;20033;-87
2022/06/04 13:00:59;;;;;;;7.85;5.43;;;34.20;35.20;;;;;;5028499;28;20072;-86
2022/06/04 13:03:37;;;;;;;8.90;5.32;;;34.80;30.60;;;;;;5027334;28;20445;-87
2022/06/04 13:06:12;;;;;;;8.55;5.05;;;35.10;30.70;;;;;;5029181;28;20126;-86
2022/06/04 13:09:00;;;;;;;9.02;5.32;;;36.40;29.80;;;;;;5034851;28;20025;-87
2022/06/04 13:11:48;;;;;;;11.00;5.85;;;36.90;30.20;;;;;;5042027;28;20021;-87
2022/06/04 13:14:43;;;;;;;10.57;5.18;;;35.80;32.00;;;;;;5040306;28;20033;-87
2022/06/04 13:17:33;;;;;;;11.48;6.03;;;35.90;31.30;;;;;;5015778;28;20423;-86
2022/06/04 13:20:20;;;;;;;12.80;6.85;;;33.50;33.50;;;;;;5035093;28;20412;-86
2022/06/04 13:23:05;;;;;;;14.77;8.85;;;32.00;38.70;;;;;;5046154;28;20029;-86
2022/06/04 13:25:43;;;;;;;13.73;8.82;;;29.90;45.90;;;;;;5035656;28;20025;-86
2022/06/04 13:28:24;;;;;;;13.35;8.70;;;28.90;47.00;;;;;;5027950;28;20025;-87
2022/06/04 13:30:51;;;;;;;13.82;9.15;;;29.40;48.00;;;;;;5015353;28;20041;-87
2022/06/04 13:33:19;;;;;;;11.85;8.40;;;29.40;46.20;;;;;;5031793;28;20263;-86